createdAt,value
2019-05-18T00:02:09.121Z,45.13
2019-05-18T00:04:35.619Z,45.20
2019-05-18T00:07:02.123Z,45.30
2019-05-18T00:09:28.466Z,45.10
2019-05-18T00:11:54.876Z,45.09
2019-05-18T00:14:21.449Z,45.24
2019-05-18T00:16:47.773Z,45.28
2019-05-18T00:19:14.106Z,45.18
2019-05-18T00:21:40.479Z,45.02
2019-05-18T00:24:08.171Z,45.09
2019-05-18T00:26:33.316Z,45.27
2019-05-18T00:28:59.696Z,45.28
2019-05-18T00:31:26.198Z,45.20
2019-05-18T00:33:52.564Z,45.07
2019-05-18T00:36:18.890Z,45.25
2019-05-18T00:38:51.325Z,45.16
2019-05-18T00:41:17.680Z,44.95
2019-05-18T00:43:44.071Z,45.03
2019-05-18T00:46:10.499Z,45.09
2019-05-18T00:48:36.850Z,45.06
2019-05-18T00:51:03.247Z,45.02
2019-05-18T00:53:29.610Z,45.10
2019-05-18T00:55:55.947Z,45.08
2019-05-18T00:58:22.346Z,44.95
2019-05-18T01:00:48.697Z,45.00
2019-05-18T01:03:15.053Z,45.09
2019-05-18T01:05:41.426Z,44.98
2019-05-18T01:10:34.178Z,45.03
2019-05-18T01:13:00.634Z,44.94
2019-05-18T01:15:26.957Z,44.82
2019-05-18T01:17:57.563Z,44.85
2019-05-18T01:20:19.635Z,44.95
2019-05-18T01:22:46.160Z,44.91
2019-05-18T01:25:12.526Z,45.01
2019-05-18T01:27:39.017Z,45.04
2019-05-18T01:30:05.368Z,45.08
2019-05-18T01:32:31.873Z,44.95
2019-05-18T01:34:58.204Z,45.07
2019-05-18T01:37:24.759Z,45.01
2019-05-18T01:39:51.079Z,45.12
2019-05-18T01:44:43.809Z,45.05
2019-05-18T01:47:10.148Z,45.11
2019-05-18T01:49:36.506Z,45.03
2019-05-18T01:52:02.930Z,45.01
2019-05-18T01:54:29.240Z,45.00
2019-05-18T01:56:57.869Z,45.00
2019-05-18T01:59:24.181Z,44.94
2019-05-18T02:01:50.512Z,44.95
2019-05-18T02:04:16.867Z,44.95
2019-05-18T02:06:43.231Z,44.98
2019-05-18T02:09:09.624Z,45.17
2019-05-18T02:11:35.936Z,44.74
2019-05-18T02:14:02.343Z,44.76
2019-05-18T02:18:55.096Z,44.65
2019-05-18T02:21:21.380Z,44.80
2019-05-18T02:23:47.728Z,44.73
2019-05-18T02:26:14.049Z,44.57
2019-05-18T02:28:40.551Z,44.65
2019-05-18T02:31:06.871Z,44.56
2019-05-18T02:33:33.244Z,44.54
2019-05-18T02:35:59.688Z,44.53
2019-05-18T02:38:26.038Z,44.66
2019-05-18T02:40:52.418Z,44.49
2019-05-18T02:43:18.795Z,44.53
2019-05-18T02:45:45.125Z,44.38
2019-05-18T02:48:11.507Z,44.42
2019-05-18T02:53:04.243Z,44.46
2019-05-18T02:55:30.699Z,44.38
2019-05-18T02:57:57.043Z,44.62
2019-05-18T03:00:23.416Z,44.45
2019-05-18T03:02:49.789Z,44.24
2019-05-18T03:05:16.185Z,44.35
2019-05-18T03:07:42.667Z,44.27
2019-05-18T03:10:09.234Z,44.46
2019-05-18T03:12:35.605Z,44.22
2019-05-18T03:15:01.971Z,44.46
2019-05-18T03:17:28.288Z,44.24
2019-05-18T03:19:54.887Z,44.11
2019-05-18T03:22:21.242Z,44.26
2019-05-18T03:24:47.600Z,44.41
2019-05-18T03:27:13.955Z,44.43
2019-05-18T03:29:40.392Z,44.38
2019-05-18T03:32:06.756Z,44.46
2019-05-18T03:34:33.192Z,44.40
2019-05-18T03:36:59.454Z,44.46
2019-05-18T03:39:25.802Z,44.50
2019-05-18T03:41:52.128Z,44.58
2019-05-18T03:44:18.522Z,44.60
2019-05-18T03:46:44.869Z,44.61
2019-05-18T03:49:25.494Z,44.72
2019-05-18T03:51:37.747Z,44.70
2019-05-18T03:54:04.133Z,44.70
2019-05-18T03:56:30.629Z,44.79
2019-05-18T03:58:57.063Z,44.75
2019-05-18T04:01:23.471Z,44.82
2019-05-18T04:03:49.814Z,44.97
2019-05-18T04:06:16.203Z,44.90
2019-05-18T04:08:42.598Z,45.00
2019-05-18T04:11:09.075Z,44.96
2019-05-18T04:13:35.452Z,44.98
2019-05-18T04:16:01.798Z,45.04
2019-05-18T04:18:28.144Z,45.00
2019-05-18T04:20:54.524Z,45.20
2019-05-18T04:23:20.916Z,45.12
2019-05-18T04:25:47.357Z,45.17
2019-05-18T04:28:13.713Z,45.03
2019-05-18T04:30:40.114Z,45.12
2019-05-18T04:33:06.469Z,45.10
2019-05-18T04:35:32.792Z,45.06
2019-05-18T04:37:59.126Z,45.14
2019-05-18T04:40:25.555Z,45.01
2019-05-18T04:42:52.013Z,45.06
2019-05-18T04:45:18.366Z,45.01
2019-05-18T04:47:48.530Z,45.01
2019-05-18T04:50:11.089Z,45.05
2019-05-18T04:52:37.412Z,45.17
2019-05-18T04:57:30.140Z,45.09
2019-05-18T04:59:56.507Z,45.07
2019-05-18T05:02:22.920Z,45.06
2019-05-18T05:04:52.620Z,45.02
2019-05-18T05:07:15.692Z,45.03
2019-05-18T05:09:42.247Z,45.03
2019-05-18T05:12:08.763Z,45.07
2019-05-18T05:14:35.124Z,45.08
2019-05-18T05:17:01.514Z,45.06
2019-05-18T05:19:27.889Z,44.88
2019-05-18T05:21:54.209Z,44.98
2019-05-18T05:24:20.588Z,44.91
2019-05-18T05:26:46.975Z,44.81
2019-05-18T05:31:39.814Z,44.79
2019-05-18T05:34:06.338Z,44.57
2019-05-18T05:36:32.686Z,44.78
2019-05-18T05:38:59.039Z,44.88
2019-05-18T05:41:25.369Z,44.95
2019-05-18T05:43:51.884Z,44.98
2019-05-18T05:46:18.278Z,45.03
2019-05-18T05:48:44.745Z,45.04
2019-05-18T05:51:11.180Z,45.05
2019-05-18T05:53:37.616Z,45.07
2019-05-18T05:56:03.966Z,45.05
2019-05-18T05:58:30.507Z,45.06
2019-05-18T06:00:56.917Z,45.07
2019-05-18T06:05:49.659Z,44.95
2019-05-18T06:08:15.992Z,44.96
2019-05-18T06:10:42.369Z,44.98
2019-05-18T06:13:08.758Z,44.93
2019-05-18T06:15:35.161Z,44.79
2019-05-18T06:18:01.461Z,44.72
2019-05-18T06:20:27.987Z,44.73
2019-05-18T06:22:54.323Z,44.74
2019-05-18T06:25:20.712Z,44.70
2019-05-18T06:27:47.089Z,44.69
2019-05-18T06:30:13.596Z,44.54
2019-05-18T06:32:39.937Z,44.57
2019-05-18T06:35:06.286Z,44.46
2019-05-18T06:37:32.608Z,44.54
2019-05-18T06:39:59.128Z,44.37
2019-05-18T06:42:25.497Z,44.33
2019-05-18T06:44:51.991Z,44.35
2019-05-18T06:47:18.317Z,44.27
2019-05-18T06:49:44.897Z,44.24
2019-05-18T06:52:11.231Z,44.27
2019-05-18T06:54:37.825Z,44.08
2019-05-18T06:57:04.281Z,44.28
2019-05-18T06:59:30.680Z,44.18
2019-05-18T07:01:56.938Z,44.17
2019-05-18T07:04:23.452Z,44.21
2019-05-18T07:06:49.795Z,44.14
2019-05-18T07:09:16.157Z,44.06
2019-05-18T07:11:42.514Z,44.12
2019-05-18T07:14:09.164Z,44.17
2019-05-18T07:16:35.575Z,44.16
2019-05-18T07:19:01.841Z,43.98
2019-05-18T07:23:54.570Z,43.96
2019-05-18T07:26:21.141Z,43.92
2019-05-18T07:28:47.471Z,43.94
2019-05-18T07:31:13.830Z,43.78
2019-05-18T07:33:40.227Z,43.86
2019-05-18T07:36:06.552Z,43.99
2019-05-18T07:38:32.942Z,43.56
2019-05-18T07:40:59.422Z,43.55
2019-05-18T07:43:25.752Z,43.35
2019-05-18T07:45:52.280Z,43.37
2019-05-18T07:48:18.706Z,43.32
2019-05-18T07:50:45.071Z,43.40
2019-05-18T07:53:11.469Z,43.58
2019-05-18T07:55:37.871Z,43.36
2019-05-18T07:58:04.356Z,43.62
2019-05-18T08:00:30.894Z,43.52
2019-05-18T08:02:57.223Z,44.05
2019-05-18T08:05:23.574Z,43.90
2019-05-18T08:07:49.910Z,43.94
2019-05-18T08:10:16.406Z,43.95
2019-05-18T08:12:42.821Z,43.82
2019-05-18T08:15:09.279Z,43.85
2019-05-18T08:17:35.682Z,44.04
2019-05-18T08:20:02.108Z,44.08
2019-05-18T08:22:28.564Z,44.08
2019-05-18T08:24:54.931Z,43.94
2019-05-18T08:27:21.249Z,44.12
2019-05-18T08:29:47.675Z,43.92
2019-05-18T08:32:14.011Z,44.17
2019-05-18T08:34:40.539Z,44.13
2019-05-18T08:37:06.946Z,44.05
2019-05-18T08:39:33.606Z,44.08
2019-05-18T08:42:00.225Z,43.97
2019-05-18T08:44:26.678Z,44.05
2019-05-18T08:46:53.029Z,43.99
2019-05-18T08:49:19.392Z,43.99
2019-05-18T08:51:45.732Z,44.11
2019-05-18T08:54:12.185Z,44.24
2019-05-18T08:56:38.538Z,44.27
2019-05-18T08:59:04.975Z,44.40
2019-05-18T09:01:31.258Z,44.33
2019-05-18T09:03:59.085Z,44.27
2019-05-18T09:06:24.259Z,44.52
2019-05-18T09:08:50.587Z,44.56
2019-05-18T09:11:16.947Z,44.61
2019-05-18T09:13:43.276Z,44.53
2019-05-18T09:16:09.787Z,44.79
2019-05-18T09:18:36.130Z,45.14
2019-05-18T09:21:02.555Z,45.40
2019-05-18T09:23:29.000Z,45.25
2019-05-18T09:28:21.740Z,45.43
2019-05-18T09:30:48.089Z,45.53
2019-05-18T09:33:14.613Z,45.47
2019-05-18T09:35:40.987Z,45.43
2019-05-18T09:38:07.384Z,45.53
2019-05-18T09:40:33.725Z,45.64
2019-05-18T09:43:00.090Z,45.52
2019-05-18T09:45:26.490Z,45.75
2019-05-18T09:47:52.809Z,45.90
2019-05-18T09:50:19.153Z,45.99
2019-05-18T09:52:46.293Z,46.06
2019-05-18T09:55:11.976Z,45.96
2019-05-18T09:57:38.327Z,45.96
2019-05-18T10:00:04.852Z,45.99
2019-05-18T10:02:31.386Z,46.17
2019-05-18T10:04:57.726Z,46.48
2019-05-18T10:07:24.046Z,46.37
2019-05-18T10:09:50.430Z,46.39
2019-05-18T10:12:16.914Z,46.49
2019-05-18T10:14:43.241Z,46.68
2019-05-18T10:17:09.771Z,46.61
2019-05-18T10:19:36.102Z,46.70
2019-05-18T10:22:02.469Z,46.75
2019-05-18T10:24:28.820Z,46.75
2019-05-18T10:26:55.147Z,46.77
2019-05-18T10:29:21.527Z,46.65
2019-05-18T10:31:47.867Z,46.71
2019-05-18T10:34:14.430Z,46.65
2019-05-18T10:36:40.918Z,46.72
2019-05-18T10:39:07.248Z,46.77
2019-05-18T10:41:33.605Z,46.64
2019-05-18T10:44:00.026Z,46.80
2019-05-18T10:46:26.403Z,46.70
2019-05-18T10:48:52.742Z,46.61
2019-05-18T10:51:19.115Z,46.62
2019-05-18T10:53:45.452Z,46.62
2019-05-18T10:56:11.814Z,46.67
2019-05-18T10:58:38.142Z,46.59
2019-05-18T11:01:04.681Z,46.59
2019-05-18T11:03:30.990Z,46.60
2019-05-18T11:05:57.371Z,46.64
2019-05-18T11:08:23.722Z,46.68
2019-05-18T11:10:50.173Z,46.73
2019-05-18T11:13:17.355Z,46.65
2019-05-18T11:15:42.922Z,46.66
2019-05-18T11:18:09.281Z,46.72
2019-05-18T11:20:35.668Z,46.71
2019-05-18T11:23:02.010Z,46.65
2019-05-18T11:25:28.496Z,46.69
2019-05-18T11:27:54.823Z,46.66
2019-05-18T11:30:21.388Z,46.83
2019-05-18T11:32:47.728Z,46.94
2019-05-18T11:35:14.199Z,46.86
2019-05-18T11:37:40.729Z,47.17
2019-05-18T11:40:07.111Z,47.48
2019-05-18T11:42:33.420Z,47.45
2019-05-18T11:44:59.776Z,47.52
2019-05-18T11:47:26.153Z,47.71
2019-05-18T11:49:52.646Z,47.83
2019-05-18T11:54:45.453Z,47.85
2019-05-18T11:57:11.867Z,48.20
2019-05-18T11:59:38.168Z,48.23
2019-05-18T12:02:04.621Z,48.22
2019-05-18T12:04:30.887Z,48.58
2019-05-18T12:06:57.527Z,48.73
2019-05-18T12:09:23.869Z,48.47
2019-05-18T12:11:50.196Z,48.85
2019-05-18T12:14:16.582Z,48.81
2019-05-18T12:16:43.038Z,49.06
2019-05-18T12:19:09.416Z,49.11
2019-05-18T12:21:35.746Z,48.91
2019-05-18T12:24:14.969Z,48.77
2019-05-18T12:28:54.829Z,48.90
2019-05-18T12:31:21.322Z,49.05
2019-05-18T12:33:47.791Z,49.07
2019-05-18T12:36:15.746Z,49.31
2019-05-18T12:38:40.460Z,49.29
2019-05-18T12:41:06.850Z,49.10
2019-05-18T12:43:33.264Z,49.08
2019-05-18T12:45:59.597Z,49.12
2019-05-18T12:48:25.977Z,49.14
2019-05-18T12:50:52.292Z,49.15
2019-05-18T12:53:18.664Z,49.03
2019-05-18T12:55:45.152Z,49.19
2019-05-18T12:58:11.661Z,49.04
2019-05-18T13:00:38.050Z,48.89
2019-05-18T13:03:04.403Z,49.09
2019-05-18T13:05:30.879Z,48.96
2019-05-18T13:07:57.415Z,48.98
2019-05-18T13:12:50.357Z,48.90
2019-05-18T13:15:16.794Z,48.84
2019-05-18T13:17:43.381Z,48.89
2019-05-18T13:20:09.709Z,48.43
2019-05-18T13:22:36.199Z,48.38
2019-05-18T13:25:02.543Z,48.42
2019-05-18T13:27:38.707Z,48.20
2019-05-18T13:29:55.411Z,48.00
2019-05-18T13:32:21.950Z,48.23
2019-05-18T13:34:48.288Z,48.02
2019-05-18T13:37:14.746Z,47.89
2019-05-18T13:39:41.076Z,47.84
2019-05-18T13:42:07.464Z,47.77
2019-05-18T13:47:00.175Z,47.84
2019-05-18T13:49:26.541Z,47.89
2019-05-18T13:51:53.204Z,47.78
2019-05-18T13:54:19.738Z,47.84
2019-05-18T13:56:46.125Z,47.76
2019-05-18T13:59:12.593Z,47.71
2019-05-18T14:01:38.930Z,47.85
2019-05-18T14:04:05.274Z,47.71
2019-05-18T14:06:31.646Z,47.75
2019-05-18T14:08:58.179Z,47.63
2019-05-18T14:11:24.513Z,47.64
2019-05-18T14:13:50.983Z,47.71
2019-05-18T14:16:17.314Z,47.74
2019-05-18T14:18:43.705Z,47.55
2019-05-18T14:21:10.058Z,47.52
2019-05-18T14:23:36.476Z,47.39
2019-05-18T14:26:02.819Z,47.51
2019-05-18T14:28:29.212Z,47.37
2019-05-18T14:30:55.542Z,47.52
2019-05-18T14:33:21.940Z,47.29
2019-05-18T14:35:48.395Z,47.27
2019-05-18T14:38:14.768Z,47.34
2019-05-18T14:40:41.107Z,47.29
2019-05-18T14:43:07.435Z,47.14
2019-05-18T14:45:36.130Z,47.27
2019-05-18T14:48:02.479Z,47.26
2019-05-18T14:50:28.908Z,47.17
2019-05-18T14:52:55.194Z,47.19
2019-05-18T14:55:32.733Z,47.10
2019-05-18T14:57:47.932Z,47.06
2019-05-18T15:00:14.450Z,47.07
2019-05-18T15:02:40.792Z,47.12
2019-05-18T15:05:07.143Z,46.99
2019-05-18T15:07:33.515Z,46.98
2019-05-18T15:09:59.863Z,46.94
2019-05-18T15:12:26.397Z,46.70
2019-05-18T15:17:19.159Z,46.75
2019-05-18T15:19:45.680Z,46.72
2019-05-18T15:22:12.023Z,46.49
2019-05-18T15:24:38.399Z,46.56
2019-05-18T15:27:04.785Z,46.49
2019-05-18T15:29:31.170Z,46.46
2019-05-18T15:31:57.501Z,46.49
2019-05-18T15:34:23.881Z,46.35
2019-05-18T15:36:50.220Z,46.21
2019-05-18T15:39:16.584Z,46.17
2019-05-18T15:41:43.181Z,46.16
2019-05-18T15:44:09.592Z,46.15
2019-05-18T15:46:35.917Z,46.14
2019-05-18T15:49:02.377Z,45.91
2019-05-18T15:51:28.709Z,46.04
2019-05-18T15:53:55.121Z,45.85
2019-05-18T15:56:21.559Z,46.01
2019-05-18T15:58:47.871Z,45.86
2019-05-18T16:01:14.218Z,45.73
2019-05-18T16:03:40.582Z,45.77
2019-05-18T16:06:06.966Z,45.53
2019-05-18T16:08:33.294Z,45.51
2019-05-18T16:10:59.756Z,45.51
2019-05-18T16:13:26.141Z,45.48
2019-05-18T16:15:52.617Z,45.41
2019-05-18T16:18:18.991Z,45.32
2019-05-18T16:20:45.505Z,45.27
2019-05-18T16:25:38.232Z,45.35
2019-05-18T16:28:04.606Z,45.23
2019-05-18T16:30:30.933Z,45.14
2019-05-18T16:32:57.345Z,45.13
2019-05-18T16:35:23.748Z,45.07
2019-05-18T16:37:50.210Z,45.09
2019-05-18T16:40:16.567Z,45.02
2019-05-18T16:42:46.374Z,44.96
2019-05-18T16:47:35.806Z,44.98
2019-05-18T16:50:02.153Z,44.97
2019-05-18T16:52:28.581Z,45.02
2019-05-18T16:54:55.029Z,45.17
2019-05-18T16:57:21.468Z,45.03
2019-05-18T16:59:47.804Z,45.12
2019-05-18T17:02:30.316Z,45.20
2019-05-18T17:04:40.681Z,45.12
2019-05-18T17:07:07.045Z,45.19
2019-05-18T17:09:33.540Z,45.17
2019-05-18T17:11:59.863Z,45.31
2019-05-18T17:14:26.386Z,45.46
2019-05-18T17:16:52.735Z,45.30
2019-05-18T17:21:45.418Z,45.51
2019-05-18T17:24:11.829Z,45.55
2019-05-18T17:26:51.785Z,45.73
2019-05-18T17:29:04.533Z,45.53
2019-05-18T17:31:31.013Z,45.66
2019-05-18T17:33:57.345Z,45.65
2019-05-18T17:36:23.725Z,45.70
2019-05-18T17:38:50.212Z,45.66
2019-05-18T17:41:16.623Z,45.74
2019-05-18T17:43:42.928Z,45.89
2019-05-18T17:46:09.411Z,45.85
2019-05-18T17:48:35.793Z,45.97
2019-05-18T17:51:02.117Z,45.96
2019-05-18T17:55:54.943Z,45.84
2019-05-18T17:58:21.263Z,45.66
2019-05-18T18:00:47.626Z,45.67
2019-05-18T18:03:14.005Z,45.59
2019-05-18T18:05:40.458Z,45.43
2019-05-18T18:08:06.812Z,45.49
2019-05-18T18:10:33.273Z,45.41
2019-05-18T18:12:59.621Z,45.53
2019-05-18T18:15:25.998Z,45.58
2019-05-18T18:17:52.362Z,45.60
2019-05-18T18:20:18.736Z,45.56
2019-05-18T18:22:45.051Z,45.37
2019-05-18T18:25:11.384Z,45.41
2019-05-18T18:27:37.823Z,45.47
2019-05-18T18:30:04.185Z,45.46
2019-05-18T18:32:30.515Z,45.34
2019-05-18T18:34:56.861Z,45.27
2019-05-18T18:37:23.368Z,45.20
2019-05-18T18:39:49.702Z,45.34
2019-05-18T18:42:16.105Z,45.27
2019-05-18T18:44:42.401Z,45.16
2019-05-18T18:47:08.728Z,45.19
2019-05-18T18:49:35.098Z,45.11
2019-05-18T18:52:01.431Z,45.14
2019-05-18T18:54:27.802Z,45.05
2019-05-18T18:56:54.129Z,45.01
2019-05-18T18:59:20.470Z,45.00
2019-05-18T19:01:46.804Z,44.89
2019-05-18T19:04:13.235Z,44.91
2019-05-18T19:06:39.666Z,44.80
2019-05-18T19:09:05.979Z,44.95
2019-05-18T19:11:32.373Z,44.74
2019-05-18T19:13:58.702Z,44.72
2019-05-18T19:16:25.075Z,44.85
2019-05-18T19:18:51.444Z,44.72
2019-05-18T19:21:17.757Z,44.79
2019-05-18T19:26:10.461Z,44.64
2019-05-18T19:28:36.902Z,44.70
2019-05-18T19:31:03.434Z,44.76
2019-05-18T19:33:29.798Z,44.59
2019-05-18T19:35:56.217Z,44.69
2019-05-18T19:38:22.684Z,44.59
2019-05-18T19:40:49.077Z,44.64
2019-05-18T19:43:15.410Z,44.59
2019-05-18T19:45:41.778Z,44.64
2019-05-18T19:48:08.259Z,44.66
2019-05-18T19:50:34.600Z,44.55
2019-05-18T19:53:01.153Z,44.66
2019-05-18T19:55:27.470Z,44.75
2019-05-18T19:57:53.959Z,44.77
2019-05-18T20:00:20.299Z,44.81
2019-05-18T20:02:46.748Z,44.92
2019-05-18T20:05:13.061Z,44.93
2019-05-18T20:07:39.509Z,44.99
2019-05-18T20:10:05.915Z,44.91
2019-05-18T20:12:32.270Z,44.99
2019-05-18T20:14:58.602Z,45.05
2019-05-18T20:17:24.968Z,45.20
2019-05-18T20:19:51.311Z,45.23
2019-05-18T20:22:17.731Z,45.36
2019-05-18T20:24:44.136Z,45.56
2019-05-18T20:27:10.499Z,45.58
2019-05-18T20:29:36.845Z,45.63
2019-05-18T20:32:03.175Z,45.66
2019-05-18T20:34:29.666Z,45.78
2019-05-18T20:36:55.994Z,45.98
2019-05-18T20:39:22.351Z,46.07
2019-05-18T20:44:15.212Z,46.17
2019-05-18T20:46:41.594Z,46.25
2019-05-18T20:49:08.163Z,46.17
2019-05-18T20:51:34.517Z,46.04
2019-05-18T20:54:00.936Z,46.11
2019-05-18T20:56:27.475Z,46.04
2019-05-18T20:58:53.799Z,46.00
2019-05-18T21:01:20.337Z,45.99
2019-05-18T21:03:46.668Z,45.96
2019-05-18T21:06:13.215Z,45.53
2019-05-18T21:08:39.570Z,45.64
2019-05-18T21:11:06.057Z,45.85
2019-05-18T21:13:32.417Z,45.65
2019-05-18T21:18:25.191Z,45.82
2019-05-18T21:20:51.700Z,45.79
2019-05-18T21:23:18.051Z,45.76
2019-05-18T21:25:44.401Z,45.33
2019-05-18T21:28:10.724Z,45.44
2019-05-18T21:30:37.240Z,45.54
2019-05-18T21:33:03.753Z,45.53
2019-05-18T21:35:30.091Z,45.37
2019-05-18T21:37:56.495Z,45.27
2019-05-18T21:40:26.074Z,45.36
2019-05-18T21:42:49.289Z,45.22
2019-05-18T21:45:17.030Z,45.02
2019-05-18T21:47:42.256Z,45.01
2019-05-18T21:52:34.952Z,45.07
2019-05-18T21:55:01.598Z,45.23
2019-05-18T21:57:27.903Z,44.93
2019-05-18T21:59:54.423Z,45.05
2019-05-18T22:02:20.798Z,44.96
2019-05-18T22:04:49.143Z,45.08
2019-05-18T22:07:13.595Z,45.03
2019-05-18T22:09:39.940Z,45.15
2019-05-18T22:12:06.271Z,45.14
2019-05-18T22:14:32.793Z,44.87
2019-05-18T22:16:59.228Z,44.93
2019-05-18T22:19:25.674Z,45.04
2019-05-18T22:21:52.023Z,44.89
2019-05-18T22:24:18.531Z,45.04
2019-05-18T22:26:45.050Z,45.01
2019-05-18T22:29:11.408Z,44.98
2019-05-18T22:31:37.776Z,44.88
2019-05-18T22:36:30.507Z,44.85
2019-05-18T22:38:56.845Z,45.06
2019-05-18T22:41:23.236Z,44.86
2019-05-18T22:43:49.599Z,45.04
2019-05-18T22:46:16.145Z,44.89
2019-05-18T22:48:42.487Z,44.97
2019-05-18T22:51:08.987Z,44.95
2019-05-18T22:53:35.412Z,45.01
2019-05-18T22:56:01.816Z,45.01
2019-05-18T22:58:28.310Z,45.07
2019-05-18T23:00:54.631Z,45.04
2019-05-18T23:03:21.079Z,44.99
2019-05-18T23:05:47.416Z,44.96
2019-05-18T23:10:40.169Z,44.77
2019-05-18T23:13:06.597Z,44.94
2019-05-18T23:15:32.932Z,45.00
2019-05-18T23:17:59.340Z,45.00
2019-05-18T23:20:25.866Z,45.28
2019-05-18T23:22:52.196Z,45.18
2019-05-18T23:25:18.729Z,45.33
2019-05-18T23:27:45.073Z,45.37
2019-05-18T23:30:11.505Z,45.29
2019-05-18T23:32:37.834Z,45.41
2019-05-18T23:35:04.268Z,45.47
2019-05-18T23:37:30.596Z,45.62
2019-05-18T23:39:57.125Z,45.59
2019-05-18T23:44:49.974Z,45.65
2019-05-18T23:47:16.298Z,45.78
2019-05-18T23:49:42.675Z,45.60
2019-05-18T23:52:09.036Z,45.73
2019-05-18T23:54:35.497Z,45.84
2019-05-18T23:57:01.946Z,45.91
2019-05-18T23:59:28.268Z,45.98
